createdAt,value
2022-10-17T00:00:26.262Z,2.00
2022-10-17T00:03:29.298Z,1.87
2022-10-17T00:06:32.293Z,2.43
2022-10-17T00:09:35.250Z,1.90
2022-10-17T00:12:39.850Z,2.63
2022-10-17T00:15:45.520Z,2.20
2022-10-17T00:18:48.458Z,2.30
2022-10-17T00:21:51.467Z,2.10
2022-10-17T00:24:54.558Z,2.77
2022-10-17T00:27:58.871Z,2.23
2022-10-17T00:31:04.272Z,2.07
2022-10-17T00:34:07.235Z,2.73
2022-10-17T00:37:10.283Z,2.50
2022-10-17T00:40:13.555Z,2.30
2022-10-17T00:43:18.780Z,2.90
2022-10-17T00:46:23.538Z,2.37
2022-10-17T00:49:29.446Z,2.43
2022-10-17T00:52:33.049Z,2.23
2022-10-17T00:55:39.924Z,2.97
2022-10-17T00:58:44.317Z,2.10
2022-10-17T01:01:54.807Z,2.40
2022-10-17T01:05:00.328Z,2.07
2022-10-17T01:08:03.770Z,2.23
2022-10-17T01:11:21.513Z,1.97
2022-10-17T01:14:41.617Z,2.30
2022-10-17T01:17:55.904Z,2.07
2022-10-17T01:21:18.303Z,2.00
2022-10-17T01:24:47.894Z,2.13
2022-10-17T01:28:07.271Z,2.40
2022-10-17T01:31:14.663Z,2.87
2022-10-17T01:34:23.082Z,1.93
2022-10-17T01:37:32.542Z,2.40
2022-10-17T01:40:40.327Z,2.07
2022-10-17T01:43:51.939Z,2.40
2022-10-17T01:47:02.788Z,1.90
2022-10-17T01:50:09.964Z,1.80
2022-10-17T01:53:19.638Z,1.93
2022-10-17T01:56:25.831Z,1.80
2022-10-17T01:59:36.732Z,2.00
2022-10-17T02:02:42.399Z,2.20
2022-10-17T02:05:46.390Z,1.47
2022-10-17T02:08:51.695Z,1.90
2022-10-17T02:12:12.874Z,1.60
2022-10-17T02:15:34.704Z,1.70
2022-10-17T02:19:02.959Z,1.80
2022-10-17T02:22:17.647Z,1.70
2022-10-17T02:25:29.648Z,1.90
2022-10-17T02:28:43.142Z,1.83
2022-10-17T02:31:50.830Z,1.50
2022-10-17T02:34:57.727Z,1.87
2022-10-17T02:38:01.847Z,1.83
2022-10-17T02:41:08.126Z,1.60
2022-10-17T02:44:11.959Z,1.50
2022-10-17T02:47:22.194Z,1.47
2022-10-17T02:50:30.786Z,1.50
2022-10-17T02:53:40.139Z,1.40
2022-10-17T02:56:49.440Z,1.63
2022-10-17T02:59:53.309Z,1.43
2022-10-17T03:02:56.473Z,1.90
2022-10-17T03:06:00.828Z,1.40
2022-10-17T03:09:03.898Z,1.53
2022-10-17T03:12:07.106Z,1.60
2022-10-17T03:15:11.658Z,1.67
2022-10-17T03:18:14.642Z,1.53
2022-10-17T03:21:19.047Z,1.40
2022-10-17T03:24:22.024Z,1.50
2022-10-17T03:27:25.174Z,1.60
2022-10-17T03:30:28.556Z,1.80
2022-10-17T03:33:31.511Z,1.63
2022-10-17T03:36:35.850Z,1.67
2022-10-17T03:39:38.818Z,1.27
2022-10-17T03:42:41.772Z,1.40
2022-10-17T03:45:44.725Z,1.30
2022-10-17T03:48:47.689Z,1.30
2022-10-17T03:51:51.979Z,1.70
2022-10-17T03:54:54.957Z,1.43
2022-10-17T03:57:57.894Z,1.50
2022-10-17T04:01:05.392Z,1.70
2022-10-17T04:04:08.478Z,1.60
2022-10-17T04:07:12.783Z,1.60
2022-10-17T04:10:15.875Z,1.90
2022-10-17T04:13:18.874Z,1.57
2022-10-17T04:16:22.435Z,1.57
2022-10-17T04:19:25.848Z,1.47
2022-10-17T04:22:30.424Z,1.40
2022-10-17T04:25:36.102Z,1.30
2022-10-17T04:31:47.766Z,1.27
2022-10-17T04:34:50.939Z,1.70
2022-10-17T04:37:55.288Z,1.30
2022-10-17T04:40:58.682Z,1.70
2022-10-17T04:44:01.638Z,1.70
2022-10-17T04:47:04.696Z,1.60
2022-10-17T04:50:08.025Z,1.50
2022-10-17T04:53:12.329Z,1.70
2022-10-17T04:56:17.340Z,1.50
2022-10-17T04:59:20.327Z,1.50
2022-10-17T05:02:23.303Z,1.30
2022-10-17T05:05:26.421Z,1.70
2022-10-17T05:08:30.697Z,1.60
2022-10-17T05:11:33.768Z,1.53
2022-10-17T05:14:36.739Z,1.83
2022-10-17T05:17:39.724Z,1.80
2022-10-17T05:20:42.845Z,1.83
2022-10-17T05:23:47.467Z,2.23
2022-10-17T05:26:51.348Z,1.70
2022-10-17T05:29:54.314Z,1.80
2022-10-17T05:32:57.250Z,1.70
2022-10-17T05:36:00.326Z,1.70
2022-10-17T05:39:04.947Z,1.70
2022-10-17T05:42:08.719Z,1.50
2022-10-17T05:45:11.941Z,2.10
2022-10-17T05:48:14.948Z,2.10
2022-10-17T05:51:17.932Z,1.63
2022-10-17T05:54:22.223Z,2.10
2022-10-17T05:57:26.167Z,1.83
2022-10-17T06:00:29.230Z,1.70
2022-10-17T06:03:32.833Z,1.87
2022-10-17T06:06:37.850Z,1.93
2022-10-17T06:09:42.294Z,1.77
2022-10-17T06:12:45.816Z,1.70
2022-10-17T06:15:48.805Z,1.93
2022-10-17T06:18:51.757Z,1.80
2022-10-17T06:21:54.708Z,2.03
2022-10-17T06:24:59.050Z,2.20
2022-10-17T06:28:01.990Z,2.00
2022-10-17T06:31:09.153Z,2.00
2022-10-17T06:34:12.097Z,2.00
2022-10-17T06:37:15.121Z,1.80
2022-10-17T06:40:19.601Z,1.97
2022-10-17T06:43:27.682Z,1.77
2022-10-17T06:46:30.994Z,1.80
2022-10-17T06:49:34.320Z,1.73
2022-10-17T06:52:37.323Z,1.90
2022-10-17T06:55:42.849Z,1.97
2022-10-17T06:58:46.996Z,1.97
2022-10-17T07:01:49.997Z,2.10
2022-10-17T07:04:53.180Z,1.87
2022-10-17T07:07:56.774Z,1.90
2022-10-17T07:11:09.254Z,1.87
2022-10-17T07:14:12.368Z,1.77
2022-10-17T07:17:15.365Z,1.90
2022-10-17T07:20:18.473Z,1.90
2022-10-17T07:23:21.470Z,2.13
2022-10-17T07:26:25.876Z,2.10
2022-10-17T07:29:28.844Z,2.20
2022-10-17T07:32:31.848Z,1.83
2022-10-17T07:35:34.797Z,2.20
2022-10-17T07:38:38.365Z,2.13
2022-10-17T07:41:42.672Z,2.00
2022-10-17T07:44:47.288Z,2.00
2022-10-17T07:47:50.434Z,2.10
2022-10-17T07:50:53.483Z,1.90
2022-10-17T07:53:56.524Z,1.90
2022-10-17T07:57:00.923Z,2.30
2022-10-17T08:00:04.177Z,2.07
2022-10-17T08:03:07.842Z,2.30
2022-10-17T08:06:10.857Z,2.00
2022-10-17T08:09:13.843Z,2.10
2022-10-17T08:12:18.302Z,2.23
2022-10-17T08:15:21.325Z,2.30
2022-10-17T08:18:24.264Z,2.50
2022-10-17T08:21:27.299Z,2.30
2022-10-17T08:24:30.230Z,2.50
2022-10-17T08:27:35.604Z,2.50
2022-10-17T08:30:38.559Z,2.13
2022-10-17T08:33:41.614Z,2.30
2022-10-17T08:36:44.614Z,2.30
2022-10-17T08:39:47.599Z,2.40
2022-10-17T08:43:14.394Z,2.23
2022-10-17T08:46:18.065Z,2.30
2022-10-17T08:49:32.035Z,2.30
2022-10-17T08:52:40.179Z,2.67
2022-10-17T08:55:46.972Z,2.40
2022-10-17T08:58:51.573Z,2.20
2022-10-17T09:02:02.140Z,2.63
2022-10-17T09:05:28.318Z,2.70
2022-10-17T09:08:42.533Z,2.23
2022-10-17T09:11:58.441Z,2.40
2022-10-17T09:15:30.799Z,2.40
2022-10-17T09:18:37.424Z,2.17
2022-10-17T09:21:44.542Z,2.13
2022-10-17T09:24:51.055Z,2.17
2022-10-17T09:27:58.401Z,2.10
2022-10-17T09:31:05.245Z,1.90
2022-10-17T09:34:11.723Z,2.00
2022-10-17T09:37:16.863Z,2.10
2022-10-17T09:40:25.491Z,2.43
2022-10-17T09:43:29.128Z,2.20
2022-10-17T09:46:37.500Z,2.10
2022-10-17T09:49:42.750Z,1.93
2022-10-17T09:52:47.782Z,2.20
2022-10-17T09:55:55.461Z,2.40
2022-10-17T09:58:59.674Z,2.30
2022-10-17T10:02:17.306Z,2.20
2022-10-17T10:05:21.533Z,2.07
2022-10-17T10:08:26.801Z,2.63
2022-10-17T10:11:46.199Z,2.67
2022-10-17T10:14:53.277Z,2.43
2022-10-17T10:17:59.029Z,2.83
2022-10-17T10:21:09.000Z,2.63
2022-10-17T10:24:14.373Z,2.63
2022-10-17T10:27:18.928Z,2.70
2022-10-17T10:30:26.388Z,2.53
2022-10-17T10:33:32.988Z,2.57
2022-10-17T10:36:48.971Z,2.50
2022-10-17T10:39:55.597Z,2.67
2022-10-17T10:43:05.054Z,2.63
2022-10-17T10:46:19.314Z,2.33
2022-10-17T10:49:32.582Z,3.13
2022-10-17T10:52:43.471Z,2.73
2022-10-17T10:55:51.652Z,2.70
2022-10-17T10:58:57.531Z,2.50
2022-10-17T11:02:06.005Z,2.70
2022-10-17T11:05:17.113Z,3.00
2022-10-17T11:08:27.437Z,2.73
2022-10-17T11:11:39.025Z,3.00
2022-10-17T11:14:48.386Z,2.60
2022-10-17T11:17:58.668Z,2.50
2022-10-17T11:21:12.261Z,3.03
2022-10-17T11:24:22.491Z,2.70
2022-10-17T11:27:27.000Z,2.10
2022-10-17T11:33:51.574Z,1.93
2022-10-17T11:36:59.535Z,2.60
2022-10-17T11:40:07.247Z,2.53
2022-10-17T11:43:14.207Z,2.40
2022-10-17T11:46:21.451Z,2.33
2022-10-17T11:49:32.155Z,2.20
2022-10-17T11:52:56.092Z,2.33
2022-10-17T11:56:01.851Z,2.30
2022-10-17T11:59:36.084Z,2.13
2022-10-17T12:02:47.444Z,2.33
2022-10-17T12:05:55.882Z,2.40
2022-10-17T12:09:08.484Z,3.27
2022-10-17T12:12:11.486Z,2.90
2022-10-17T12:15:30.874Z,3.20
2022-10-17T12:18:34.040Z,3.60
2022-10-17T12:21:56.071Z,3.70
2022-10-17T12:25:02.581Z,3.53
2022-10-17T12:28:16.937Z,4.23
2022-10-17T12:31:29.608Z,3.70
2022-10-17T12:34:36.992Z,3.80
2022-10-17T12:38:21.173Z,3.83
2022-10-17T12:41:54.482Z,3.97
2022-10-17T12:44:57.526Z,4.17
2022-10-17T12:48:00.528Z,3.87
2022-10-17T12:54:37.875Z,3.83
2022-10-17T12:58:04.047Z,3.80
2022-10-17T13:01:23.806Z,4.30
2022-10-17T13:04:29.450Z,4.10
2022-10-17T13:07:35.284Z,4.07
2022-10-17T13:10:43.176Z,4.20
2022-10-17T13:13:51.993Z,3.73
2022-10-17T13:16:57.448Z,3.73
2022-10-17T13:20:00.622Z,4.20
2022-10-17T13:23:04.144Z,4.30
2022-10-17T13:26:14.258Z,4.10
2022-10-17T13:29:20.261Z,4.53
2022-10-17T13:32:24.330Z,3.80
2022-10-17T13:35:55.326Z,4.27
2022-10-17T13:38:54.440Z,4.90
2022-10-17T13:41:58.707Z,4.17
2022-10-17T13:45:03.206Z,4.27
2022-10-17T13:48:09.997Z,4.90
2022-10-17T13:51:13.886Z,4.27
2022-10-17T13:54:31.599Z,4.60
2022-10-17T13:57:34.877Z,4.97
2022-10-17T14:00:39.500Z,4.73
2022-10-17T14:03:48.512Z,4.47
2022-10-17T14:06:52.841Z,5.33
2022-10-17T14:09:55.969Z,5.00
2022-10-17T14:12:59.776Z,4.43
2022-10-17T14:16:05.459Z,4.43
2022-10-17T14:19:21.530Z,5.13
2022-10-17T14:22:29.375Z,5.33
2022-10-17T14:25:35.502Z,5.03
2022-10-17T14:28:39.104Z,5.30
2022-10-17T14:31:43.504Z,5.40
2022-10-17T14:34:47.782Z,5.53
2022-10-17T14:37:52.923Z,6.80
2022-10-17T14:41:15.376Z,6.40
2022-10-17T14:44:27.917Z,5.80
2022-10-17T14:47:43.327Z,5.83
2022-10-17T14:51:09.432Z,5.63
2022-10-17T14:54:22.345Z,5.47
2022-10-17T14:57:28.671Z,5.83
2022-10-17T15:00:31.663Z,5.80
2022-10-17T15:03:36.227Z,5.37
2022-10-17T15:06:40.538Z,5.60
2022-10-17T15:09:44.169Z,5.57
2022-10-17T15:12:56.190Z,5.27
2022-10-17T15:16:02.970Z,5.47
2022-10-17T15:19:07.372Z,5.30
2022-10-17T15:22:10.375Z,6.00
2022-10-17T15:25:13.331Z,5.87
2022-10-17T15:28:16.285Z,6.43
2022-10-17T15:31:22.107Z,6.03
2022-10-17T15:34:26.433Z,5.83
2022-10-17T15:37:34.848Z,6.73
2022-10-17T15:40:37.815Z,5.93
2022-10-17T15:43:40.832Z,6.47
2022-10-17T15:46:44.330Z,6.67
2022-10-17T15:49:48.633Z,6.30
2022-10-17T15:52:52.186Z,6.43
2022-10-17T15:55:55.230Z,6.23
2022-10-17T15:58:58.869Z,5.83
2022-10-17T16:02:01.875Z,6.30
2022-10-17T16:05:14.847Z,5.80
2022-10-17T16:08:17.782Z,5.53
2022-10-17T16:11:27.750Z,6.07
2022-10-17T16:14:31.693Z,6.07
2022-10-17T16:17:34.642Z,5.13
2022-10-17T16:20:39.385Z,5.70
2022-10-17T16:23:43.217Z,5.80
2022-10-17T16:26:46.311Z,6.00
2022-10-17T16:29:49.274Z,6.90
2022-10-17T16:32:52.407Z,6.07
2022-10-17T16:35:56.702Z,6.30
2022-10-17T16:38:59.714Z,6.37
2022-10-17T16:42:02.682Z,7.13
2022-10-17T16:45:06.377Z,6.40
2022-10-17T16:48:10.782Z,6.97
2022-10-17T16:51:16.256Z,6.77
2022-10-17T16:54:19.312Z,6.27
2022-10-17T16:57:22.242Z,5.80
2022-10-17T17:00:26.225Z,6.93
2022-10-17T17:03:29.640Z,7.10
2022-10-17T17:06:34.146Z,7.53
2022-10-17T17:09:37.148Z,6.60
2022-10-17T17:12:40.110Z,7.13
2022-10-17T17:15:43.054Z,7.10
2022-10-17T17:18:46.755Z,6.90
2022-10-17T17:21:51.182Z,7.10
2022-10-17T17:24:54.180Z,6.97
2022-10-17T17:27:57.149Z,8.00
2022-10-17T17:31:00.299Z,7.17
2022-10-17T17:34:03.875Z,7.87
2022-10-17T17:37:08.375Z,7.50
2022-10-17T17:40:12.312Z,8.03
2022-10-17T17:43:15.452Z,7.97
2022-10-17T17:46:20.164Z,8.20
2022-10-17T17:49:23.391Z,8.30
2022-10-17T17:52:28.163Z,8.43
2022-10-17T17:55:31.347Z,8.73
2022-10-17T17:58:34.890Z,7.70
2022-10-17T18:01:38.971Z,7.83
2022-10-17T18:04:42.107Z,8.13
2022-10-17T18:07:46.417Z,8.60
2022-10-17T18:10:49.974Z,8.63
2022-10-17T18:13:55.534Z,8.87
2022-10-17T18:16:58.506Z,10.13
2022-10-17T18:20:02.660Z,9.20
2022-10-17T18:23:06.932Z,10.10
2022-10-17T18:26:10.855Z,10.37
2022-10-17T18:29:13.825Z,10.20
2022-10-17T18:32:16.891Z,9.33
2022-10-17T18:35:19.853Z,10.67
2022-10-17T18:38:24.138Z,9.33
2022-10-17T18:41:28.344Z,9.80
2022-10-17T18:44:31.282Z,10.37
2022-10-17T18:47:34.215Z,9.90
2022-10-17T18:50:40.073Z,9.33
2022-10-17T18:53:45.990Z,8.73
2022-10-17T18:56:50.976Z,9.07
2022-10-17T18:59:54.059Z,9.07
2022-10-17T19:02:57.017Z,9.13
2022-10-17T19:06:02.401Z,10.17
2022-10-17T19:09:08.252Z,9.37
2022-10-17T19:12:11.192Z,9.47
2022-10-17T19:15:14.153Z,8.00
2022-10-17T19:18:17.111Z,8.13
2022-10-17T19:21:22.045Z,8.00
2022-10-17T19:24:28.842Z,4.90
2022-10-17T19:27:32.352Z,3.70
2022-10-17T19:30:35.605Z,2.30
2022-10-17T19:33:38.687Z,2.83
2022-10-17T19:36:42.558Z,3.03
2022-10-17T19:39:46.849Z,3.73
2022-10-17T19:42:49.839Z,3.00
2022-10-17T19:45:56.864Z,3.03
2022-10-17T19:48:59.816Z,2.40
2022-10-17T19:52:02.765Z,2.53
2022-10-17T19:55:07.767Z,2.63
2022-10-17T19:58:11.025Z,2.30
2022-10-17T20:01:15.481Z,2.90
2022-10-17T20:04:18.578Z,2.40
2022-10-17T20:07:21.580Z,2.40
2022-10-17T20:10:26.425Z,2.20
2022-10-17T20:13:29.390Z,1.60
2022-10-17T20:16:34.501Z,1.93
2022-10-17T20:19:37.510Z,1.67
2022-10-17T20:22:40.715Z,1.67
2022-10-17T20:25:46.551Z,1.60
2022-10-17T20:28:49.736Z,1.50
2022-10-17T20:31:52.803Z,1.70
2022-10-17T20:34:55.767Z,1.70
2022-10-17T20:37:58.735Z,1.80
2022-10-17T20:41:03.561Z,1.70
2022-10-17T20:44:07.733Z,1.50
2022-10-17T20:47:16.223Z,1.77
2022-10-17T20:50:19.467Z,1.80
2022-10-17T20:53:36.640Z,1.83
2022-10-17T20:56:41.800Z,1.67
2022-10-17T20:59:45.867Z,1.63
2022-10-17T21:02:48.899Z,1.70
2022-10-17T21:05:51.953Z,1.90
2022-10-17T21:08:56.424Z,1.90
2022-10-17T21:15:09.924Z,1.83
2022-10-17T21:18:12.883Z,1.50
2022-10-17T21:21:17.409Z,1.50
2022-10-17T21:24:20.897Z,1.90
2022-10-17T21:27:25.442Z,1.70
2022-10-17T21:30:28.481Z,1.60
2022-10-17T21:33:31.406Z,1.57
2022-10-17T21:36:34.444Z,1.87
2022-10-17T21:39:37.395Z,1.57
2022-10-17T21:42:41.691Z,2.00
2022-10-17T21:45:44.694Z,2.00
2022-10-17T21:48:48.975Z,1.90
2022-10-17T21:51:53.337Z,2.17
2022-10-17T21:54:56.315Z,2.57
2022-10-17T21:58:00.616Z,2.67
2022-10-17T22:01:05.037Z,3.20
2022-10-17T22:04:11.101Z,3.50
2022-10-17T22:07:14.023Z,3.13
2022-10-17T22:10:17.097Z,3.40
2022-10-17T22:13:21.436Z,3.90
2022-10-17T22:16:24.937Z,3.43
2022-10-17T22:19:28.463Z,4.00
2022-10-17T22:22:31.745Z,4.17
2022-10-17T22:25:34.762Z,4.43
2022-10-17T22:28:41.001Z,4.73
2022-10-17T22:31:44.033Z,3.83
2022-10-17T22:34:47.973Z,4.03
2022-10-17T22:37:51.378Z,4.40
2022-10-17T22:40:54.573Z,4.20
2022-10-17T22:43:58.863Z,4.27
2022-10-17T22:47:01.833Z,4.50
2022-10-17T22:50:05.200Z,3.90
2022-10-17T22:53:08.175Z,4.50
2022-10-17T22:56:14.187Z,4.27
2022-10-17T22:59:18.833Z,4.30
2022-10-17T23:02:21.772Z,4.13
2022-10-17T23:05:24.755Z,4.10
2022-10-17T23:08:28.098Z,4.47
2022-10-17T23:11:31.251Z,4.50
2022-10-17T23:14:37.467Z,4.80
2022-10-17T23:17:40.497Z,4.87
2022-10-17T23:20:43.451Z,4.60
2022-10-17T23:23:46.658Z,4.67
2022-10-17T23:26:49.596Z,4.90
2022-10-17T23:29:53.912Z,4.80
2022-10-17T23:32:56.890Z,4.83
2022-10-17T23:35:59.852Z,4.23
2022-10-17T23:39:02.862Z,4.97
2022-10-17T23:42:05.790Z,5.33
2022-10-17T23:45:12.367Z,4.83
2022-10-17T23:48:15.342Z,4.67
2022-10-17T23:51:18.468Z,5.17
2022-10-17T23:54:21.484Z,4.83
2022-10-17T23:57:24.537Z,5.37
